createdAt,value
2018-03-31T00:00:33.216Z,14.80
2018-03-31T00:03:00.333Z,15.30
2018-03-31T00:05:27.501Z,16.80
2018-03-31T00:07:54.620Z,16.90
2018-03-31T00:10:21.738Z,17.47
2018-03-31T00:12:48.890Z,16.30
2018-03-31T00:15:16.009Z,16.07
2018-03-31T00:17:43.147Z,15.10
2018-03-31T00:20:10.294Z,15.67
2018-03-31T00:22:37.426Z,16.03
2018-03-31T00:25:04.589Z,15.57
2018-03-31T00:27:31.712Z,16.13
2018-03-31T00:29:58.837Z,16.70
2018-03-31T00:32:26.004Z,16.03
2018-03-31T00:34:53.125Z,16.33
2018-03-31T00:37:20.247Z,15.10
2018-03-31T00:39:47.459Z,15.87
2018-03-31T00:42:14.573Z,15.10
2018-03-31T00:44:41.697Z,15.20
2018-03-31T00:47:08.873Z,14.23
2018-03-31T00:49:36.021Z,14.97
2018-03-31T00:52:03.140Z,15.70
2018-03-31T00:54:30.290Z,14.80
2018-03-31T00:56:57.418Z,15.63
2018-03-31T00:59:24.535Z,15.07
2018-03-31T01:01:51.690Z,15.10
2018-03-31T01:04:18.838Z,15.37
2018-03-31T01:06:46.006Z,15.30
2018-03-31T01:09:13.157Z,15.60
2018-03-31T01:11:40.282Z,15.03
2018-03-31T01:14:07.448Z,16.30
2018-03-31T01:16:34.581Z,15.60
2018-03-31T01:19:01.706Z,15.53
2018-03-31T01:21:28.863Z,15.10
2018-03-31T01:23:55.975Z,15.50
2018-03-31T01:26:23.089Z,15.30
2018-03-31T01:28:50.291Z,15.47
2018-03-31T01:31:17.405Z,15.60
2018-03-31T01:33:44.529Z,15.40
2018-03-31T01:36:11.706Z,13.60
2018-03-31T01:38:38.825Z,15.40
2018-03-31T01:41:05.973Z,15.00
2018-03-31T01:43:33.122Z,15.03
2018-03-31T01:46:00.270Z,16.00
2018-03-31T01:48:27.402Z,15.60
2018-03-31T01:50:54.564Z,15.13
2018-03-31T01:53:21.703Z,14.87
2018-03-31T01:55:48.816Z,15.07
2018-03-31T01:58:15.969Z,14.67
2018-03-31T02:00:43.082Z,15.33
2018-03-31T02:03:10.206Z,15.63
2018-03-31T02:05:37.360Z,14.80
2018-03-31T02:08:04.522Z,15.07
2018-03-31T02:10:31.673Z,14.80
2018-03-31T02:12:58.802Z,16.47
2018-03-31T02:15:25.918Z,15.83
2018-03-31T02:17:53.087Z,15.93
2018-03-31T02:20:20.213Z,15.03
2018-03-31T02:22:47.333Z,15.60
2018-03-31T02:25:14.478Z,16.05
2018-03-31T02:27:41.598Z,15.50
2018-03-31T02:30:08.774Z,15.30
2018-03-31T02:32:35.919Z,15.60
2018-03-31T02:35:03.048Z,15.77
2018-03-31T02:37:30.222Z,15.40
2018-03-31T02:39:57.346Z,15.20
2018-03-31T02:42:24.470Z,15.93
2018-03-31T02:44:51.618Z,16.10
2018-03-31T02:47:18.743Z,15.43
2018-03-31T02:49:45.863Z,15.13
2018-03-31T02:52:13.039Z,15.43
2018-03-31T02:54:40.163Z,15.73
2018-03-31T02:57:07.285Z,15.37
2018-03-31T02:59:34.451Z,15.70
2018-03-31T03:02:01.575Z,14.70
2018-03-31T03:04:28.693Z,15.77
2018-03-31T03:06:55.841Z,16.17
2018-03-31T03:09:23.025Z,14.50
2018-03-31T03:11:50.158Z,16.03
2018-03-31T03:14:17.327Z,15.10
2018-03-31T03:16:44.448Z,15.20
2018-03-31T03:19:11.565Z,15.70
2018-03-31T03:21:38.730Z,14.77
2018-03-31T03:24:05.853Z,16.10
2018-03-31T03:26:32.967Z,13.70
2018-03-31T03:29:00.138Z,15.60
2018-03-31T03:31:27.250Z,14.87
2018-03-31T03:33:54.369Z,14.50
2018-03-31T03:36:21.531Z,14.23
2018-03-31T03:38:48.645Z,15.23
2018-03-31T03:41:15.805Z,14.87
2018-03-31T03:43:42.926Z,15.27
2018-03-31T03:46:10.033Z,15.17
2018-03-31T03:48:37.181Z,14.70
2018-03-31T03:51:04.337Z,15.40
2018-03-31T03:53:31.460Z,14.40
2018-03-31T03:55:58.581Z,13.10
2018-03-31T03:58:25.721Z,15.60
2018-03-31T04:00:52.890Z,14.13
2018-03-31T04:03:20.007Z,14.47
2018-03-31T04:05:47.162Z,14.77
2018-03-31T04:08:14.276Z,14.47
2018-03-31T04:10:41.407Z,14.33
2018-03-31T04:13:08.573Z,13.93
2018-03-31T04:15:35.693Z,14.43
2018-03-31T04:18:02.821Z,13.93
2018-03-31T04:20:29.993Z,13.90
2018-03-31T04:22:57.121Z,13.80
2018-03-31T04:25:24.272Z,14.20
2018-03-31T04:27:51.682Z,14.90
2018-03-31T04:30:18.815Z,14.70
2018-03-31T04:32:46.480Z,14.27
2018-03-31T04:35:13.598Z,15.53
2018-03-31T04:37:40.726Z,14.50
2018-03-31T04:40:07.890Z,14.93
2018-03-31T04:42:35.005Z,15.23
2018-03-31T04:45:02.127Z,15.53
2018-03-31T04:47:29.295Z,14.43
2018-03-31T04:49:56.446Z,14.97
2018-03-31T04:52:23.576Z,15.10
2018-03-31T04:54:50.715Z,14.80
2018-03-31T04:57:17.833Z,15.07
2018-03-31T04:59:44.952Z,14.90
2018-03-31T05:02:12.122Z,15.00
2018-03-31T05:04:39.271Z,15.77
2018-03-31T05:07:06.382Z,15.80
2018-03-31T05:09:33.528Z,15.00
2018-03-31T05:12:00.722Z,16.43
2018-03-31T05:14:27.844Z,15.80
2018-03-31T05:16:54.961Z,15.70
2018-03-31T05:19:22.101Z,17.40
2018-03-31T05:21:49.221Z,15.50
2018-03-31T05:24:16.422Z,15.53
2018-03-31T05:26:43.547Z,15.53
2018-03-31T05:29:10.701Z,15.00
2018-03-31T05:31:37.825Z,16.17
2018-03-31T05:34:04.953Z,16.40
2018-03-31T05:36:32.161Z,14.80
2018-03-31T05:38:59.277Z,16.90
2018-03-31T05:41:26.389Z,14.60
2018-03-31T05:43:53.529Z,14.97
2018-03-31T05:46:20.649Z,17.27
2018-03-31T05:48:47.813Z,15.70
2018-03-31T05:51:14.973Z,15.90
2018-03-31T05:53:42.099Z,15.80
2018-03-31T05:56:09.249Z,16.00
2018-03-31T05:58:36.418Z,15.50
2018-03-31T06:01:03.546Z,16.50
2018-03-31T06:03:30.674Z,15.50
2018-03-31T06:05:57.830Z,15.60
2018-03-31T06:08:24.945Z,15.30
2018-03-31T06:10:52.074Z,16.30
2018-03-31T06:13:19.228Z,15.90
2018-03-31T06:15:46.363Z,15.70
2018-03-31T06:18:13.502Z,15.73
2018-03-31T06:20:40.687Z,16.40
2018-03-31T06:23:07.810Z,15.33
2018-03-31T06:25:34.939Z,15.80
2018-03-31T06:28:02.097Z,15.03
2018-03-31T06:30:29.298Z,16.43
2018-03-31T06:32:56.408Z,14.40
2018-03-31T06:35:23.565Z,17.40
2018-03-31T06:37:50.722Z,16.17
2018-03-31T06:40:17.855Z,15.63
2018-03-31T06:42:44.982Z,15.53
2018-03-31T06:45:12.129Z,16.40
2018-03-31T06:47:39.273Z,16.80
2018-03-31T06:50:06.386Z,16.50
2018-03-31T06:52:33.554Z,15.50
2018-03-31T06:55:00.678Z,16.17
2018-03-31T06:57:27.797Z,17.17
2018-03-31T06:59:54.965Z,16.80
2018-03-31T07:02:22.093Z,18.20
2018-03-31T07:04:49.221Z,16.57
2018-03-31T07:07:16.397Z,17.43
2018-03-31T07:09:43.536Z,17.17
2018-03-31T07:12:10.657Z,15.60
2018-03-31T07:14:37.810Z,16.50
2018-03-31T07:17:04.925Z,16.63
2018-03-31T07:19:32.042Z,16.80
2018-03-31T07:21:59.201Z,16.83
2018-03-31T07:24:26.333Z,17.67
2018-03-31T07:26:53.457Z,19.03
2018-03-31T07:29:20.605Z,18.80
2018-03-31T07:31:47.721Z,17.33
2018-03-31T07:34:14.840Z,17.90
2018-03-31T07:36:42.001Z,17.90
2018-03-31T07:39:09.146Z,18.30
2018-03-31T07:41:36.269Z,18.30
2018-03-31T07:44:03.442Z,17.50
2018-03-31T07:46:30.572Z,17.97
2018-03-31T07:48:57.734Z,19.07
2018-03-31T07:51:24.917Z,17.73
2018-03-31T07:53:52.041Z,18.80
2018-03-31T07:56:19.293Z,18.70
2018-03-31T07:58:46.432Z,18.47
2018-03-31T08:01:13.594Z,19.00
2018-03-31T08:03:40.749Z,18.37
2018-03-31T08:06:07.865Z,18.47
2018-03-31T08:08:35.009Z,18.47
2018-03-31T08:11:02.169Z,18.50
2018-03-31T08:13:29.289Z,18.43
2018-03-31T08:15:56.432Z,18.97
2018-03-31T08:18:23.585Z,17.80
2018-03-31T08:20:50.708Z,19.37
2018-03-31T08:23:17.830Z,19.60
2018-03-31T08:25:44.981Z,17.73
2018-03-31T08:28:13.050Z,18.57
2018-03-31T08:30:40.234Z,19.20
2018-03-31T08:33:07.361Z,19.40
2018-03-31T08:35:34.477Z,19.83
2018-03-31T08:38:01.644Z,19.70
2018-03-31T08:40:32.641Z,18.40
2018-03-31T08:42:59.761Z,19.50
2018-03-31T08:45:26.905Z,18.67
2018-03-31T08:47:54.033Z,18.70
2018-03-31T08:50:21.177Z,20.10
2018-03-31T08:52:48.337Z,19.47
2018-03-31T08:55:15.480Z,20.87
2018-03-31T08:57:42.609Z,21.27
2018-03-31T09:00:09.778Z,20.30
2018-03-31T09:02:36.909Z,20.10
2018-03-31T09:05:04.034Z,20.97
2018-03-31T09:11:01.998Z,20.43
2018-03-31T09:13:29.145Z,20.10
2018-03-31T09:15:56.295Z,22.00
2018-03-31T09:18:23.413Z,21.90
2018-03-31T09:20:50.529Z,23.63
2018-03-31T09:23:17.665Z,22.17
2018-03-31T09:25:44.813Z,23.50
2018-03-31T09:28:11.930Z,22.97
2018-03-31T09:30:39.089Z,22.57
2018-03-31T09:33:06.205Z,23.00
2018-03-31T09:35:33.339Z,23.63
2018-03-31T09:38:00.505Z,22.70
2018-03-31T09:40:27.625Z,24.43
2018-03-31T09:42:54.765Z,22.93
2018-03-31T09:45:21.921Z,21.03
2018-03-31T09:47:49.038Z,22.53
2018-03-31T09:50:16.168Z,21.57
2018-03-31T09:52:43.310Z,22.00
2018-03-31T09:55:10.425Z,22.40
2018-03-31T09:57:37.570Z,22.07
2018-03-31T10:00:04.689Z,23.00
2018-03-31T10:02:32.085Z,22.13
2018-03-31T10:04:59.206Z,23.50
2018-03-31T10:07:26.333Z,23.00
2018-03-31T10:09:53.514Z,24.90
2018-03-31T10:12:20.643Z,24.43
2018-03-31T10:14:47.766Z,23.70
2018-03-31T10:17:14.922Z,25.30
2018-03-31T10:19:42.033Z,23.73
2018-03-31T10:22:09.191Z,22.27
2018-03-31T10:24:36.321Z,23.40
2018-03-31T10:27:03.462Z,21.30
2018-03-31T10:29:30.610Z,20.33
2018-03-31T10:31:57.729Z,22.17
2018-03-31T10:34:24.897Z,21.57
2018-03-31T10:36:52.022Z,22.13
2018-03-31T10:39:19.142Z,20.80
2018-03-31T10:41:46.317Z,19.90
2018-03-31T10:44:13.438Z,21.30
2018-03-31T10:46:40.577Z,23.30
2018-03-31T10:49:07.730Z,22.33
2018-03-31T10:51:34.848Z,21.80
2018-03-31T10:54:01.972Z,22.47
2018-03-31T10:56:29.226Z,22.30
2018-03-31T10:58:56.368Z,22.40
2018-03-31T11:01:23.525Z,21.83
2018-03-31T11:03:50.634Z,22.00
2018-03-31T11:06:17.787Z,20.97
2018-03-31T11:08:44.906Z,22.73
2018-03-31T11:11:12.034Z,21.40
2018-03-31T11:13:39.176Z,22.60
2018-03-31T11:16:06.330Z,21.00
2018-03-31T11:18:33.446Z,22.13
2018-03-31T11:21:00.613Z,22.23
2018-03-31T11:23:27.728Z,22.63
2018-03-31T11:25:54.857Z,22.90
2018-03-31T11:28:22.034Z,20.83
2018-03-31T11:30:49.149Z,22.60
2018-03-31T11:33:16.275Z,22.27
2018-03-31T11:35:43.422Z,22.20
2018-03-31T11:38:10.541Z,22.10
2018-03-31T11:40:37.714Z,21.50
2018-03-31T11:43:04.875Z,22.00
2018-03-31T11:45:32.005Z,22.90
2018-03-31T11:47:59.148Z,22.37
2018-03-31T11:50:26.269Z,23.40
2018-03-31T11:52:53.448Z,21.90
2018-03-31T11:55:20.570Z,23.13
2018-03-31T11:57:47.690Z,23.10
2018-03-31T12:00:14.829Z,23.90
2018-03-31T12:02:41.946Z,23.17
2018-03-31T12:05:09.172Z,21.97
2018-03-31T12:07:36.281Z,22.50
2018-03-31T12:10:03.448Z,22.50
2018-03-31T12:12:30.589Z,21.97
2018-03-31T12:14:57.736Z,23.03
2018-03-31T12:17:24.892Z,23.23
2018-03-31T12:19:52.013Z,22.43
2018-03-31T12:22:19.134Z,22.63
2018-03-31T12:24:46.296Z,23.53
2018-03-31T12:27:13.437Z,24.47
2018-03-31T12:29:40.557Z,22.57
2018-03-31T12:32:07.818Z,23.23
2018-03-31T12:34:34.936Z,22.70
2018-03-31T12:37:02.069Z,22.93
2018-03-31T12:39:29.234Z,23.23
2018-03-31T12:41:56.346Z,24.10
2018-03-31T12:44:23.466Z,23.40
2018-03-31T12:46:50.607Z,22.87
2018-03-31T12:49:17.726Z,24.63
2018-03-31T12:51:44.944Z,24.10
2018-03-31T12:54:12.050Z,24.20
2018-03-31T12:56:39.173Z,23.67
2018-03-31T12:59:06.319Z,22.47
2018-03-31T13:01:33.552Z,24.00
2018-03-31T13:04:00.674Z,23.70
2018-03-31T13:06:27.949Z,24.30
2018-03-31T13:08:55.270Z,23.63
2018-03-31T13:11:22.386Z,23.70
2018-03-31T13:13:49.505Z,24.17
2018-03-31T13:16:16.677Z,23.50
2018-03-31T13:18:43.802Z,23.90
2018-03-31T13:21:10.943Z,25.33
2018-03-31T13:23:38.095Z,25.00
2018-03-31T13:26:05.210Z,23.90
2018-03-31T13:28:32.383Z,24.40
2018-03-31T13:30:59.504Z,23.30
2018-03-31T13:33:26.624Z,22.20
2018-03-31T13:35:53.781Z,23.20
2018-03-31T13:38:20.936Z,25.00
2018-03-31T13:40:48.054Z,25.20
2018-03-31T13:43:15.194Z,24.67
2018-03-31T13:45:42.305Z,24.13
2018-03-31T13:48:09.444Z,25.03
2018-03-31T13:50:36.618Z,24.23
2018-03-31T13:53:03.737Z,25.37
2018-03-31T13:55:30.853Z,25.53
2018-03-31T13:57:58.031Z,23.90
2018-03-31T14:00:25.153Z,23.70
2018-03-31T14:02:52.270Z,23.97
2018-03-31T14:05:19.426Z,24.70
2018-03-31T14:07:46.710Z,26.20
2018-03-31T14:10:13.867Z,24.63
2018-03-31T14:12:40.994Z,26.60
2018-03-31T14:15:08.104Z,26.67
2018-03-31T14:17:35.258Z,26.40
2018-03-31T14:20:02.378Z,25.30
2018-03-31T14:22:29.501Z,26.53
2018-03-31T14:24:56.641Z,26.30
2018-03-31T14:27:23.792Z,26.50
2018-03-31T14:29:50.917Z,27.93
2018-03-31T14:32:18.030Z,27.63
2018-03-31T14:34:45.204Z,26.73
2018-03-31T14:37:12.321Z,27.00
2018-03-31T14:39:39.446Z,27.93
2018-03-31T14:42:06.586Z,28.77
2018-03-31T14:44:33.709Z,28.80
2018-03-31T14:47:00.987Z,28.87
2018-03-31T14:49:28.112Z,26.60
2018-03-31T14:51:55.233Z,27.77
2018-03-31T14:54:22.381Z,27.27
2018-03-31T14:56:49.537Z,27.13
2018-03-31T14:59:16.824Z,28.30
2018-03-31T15:01:43.936Z,27.20
2018-03-31T15:04:11.066Z,27.60
2018-03-31T15:06:38.213Z,30.23
2018-03-31T15:09:05.413Z,29.67
2018-03-31T15:11:32.533Z,30.50
2018-03-31T15:13:59.662Z,30.57
2018-03-31T15:16:26.821Z,30.13
2018-03-31T15:18:53.942Z,30.97
2018-03-31T15:21:21.066Z,31.50
2018-03-31T15:23:49.214Z,31.50
2018-03-31T15:26:16.345Z,32.20
2018-03-31T15:28:43.478Z,32.17
2018-03-31T15:31:10.634Z,31.67
2018-03-31T15:33:37.758Z,31.67
2018-03-31T15:36:04.903Z,32.93
2018-03-31T15:38:32.074Z,30.77
2018-03-31T15:40:59.255Z,31.27
2018-03-31T15:43:26.375Z,28.83
2018-03-31T15:45:53.509Z,30.90
2018-03-31T15:48:20.674Z,30.83
2018-03-31T15:50:47.794Z,31.53
2018-03-31T15:53:14.910Z,31.70
2018-03-31T15:55:42.058Z,33.83
2018-03-31T15:58:09.173Z,36.40
2018-03-31T16:00:36.289Z,33.60
2018-03-31T16:03:03.461Z,35.30
2018-03-31T16:05:30.586Z,37.43
2018-03-31T16:07:57.739Z,34.60
2018-03-31T16:10:25.005Z,34.87
2018-03-31T16:12:52.137Z,36.93
2018-03-31T16:15:19.298Z,35.30
2018-03-31T16:17:46.422Z,34.60
2018-03-31T16:20:13.545Z,34.00
2018-03-31T16:22:40.710Z,32.70
2018-03-31T16:25:07.949Z,31.97
2018-03-31T16:27:35.047Z,35.60
2018-03-31T16:30:02.190Z,32.60
2018-03-31T16:32:29.356Z,33.00
2018-03-31T16:34:56.532Z,35.43
2018-03-31T16:37:23.723Z,33.37
2018-03-31T16:39:50.854Z,34.73
2018-03-31T16:42:17.986Z,33.53
2018-03-31T16:44:45.147Z,34.07
2018-03-31T16:47:12.778Z,34.40
2018-03-31T16:49:39.926Z,33.80
2018-03-31T16:52:07.086Z,35.00
2018-03-31T16:54:34.210Z,34.07
2018-03-31T16:57:01.335Z,35.43
2018-03-31T16:59:28.477Z,34.93
2018-03-31T17:01:55.589Z,34.10
2018-03-31T17:04:22.746Z,33.73
2018-03-31T17:06:49.871Z,33.87
2018-03-31T17:09:16.999Z,35.27
2018-03-31T17:11:44.161Z,33.27
2018-03-31T17:14:11.284Z,35.13
2018-03-31T17:16:38.401Z,32.90
2018-03-31T17:19:05.538Z,33.00
2018-03-31T17:21:32.670Z,35.30
2018-03-31T17:23:59.992Z,34.40
2018-03-31T17:26:27.111Z,36.23
2018-03-31T17:28:54.241Z,37.50
2018-03-31T17:31:21.389Z,36.00
2018-03-31T17:33:48.507Z,36.40
2018-03-31T17:36:15.674Z,36.23
2018-03-31T17:38:42.801Z,40.40
2018-03-31T17:41:09.923Z,37.70
2018-03-31T17:43:37.065Z,38.60
2018-03-31T17:46:04.181Z,38.60
2018-03-31T17:48:31.345Z,40.07
2018-03-31T17:50:58.469Z,38.00
2018-03-31T17:53:25.615Z,37.43
2018-03-31T17:55:52.773Z,39.23
2018-03-31T17:58:19.884Z,42.13
2018-03-31T18:00:46.996Z,41.47
2018-03-31T18:03:14.165Z,42.07
2018-03-31T18:05:41.285Z,41.90
2018-03-31T18:08:08.409Z,43.80
2018-03-31T18:10:35.561Z,44.10
2018-03-31T18:13:02.674Z,42.80
2018-03-31T18:15:29.789Z,42.80
2018-03-31T18:17:56.955Z,42.47
2018-03-31T18:20:24.148Z,42.23
2018-03-31T18:22:51.277Z,43.53
2018-03-31T18:25:18.438Z,43.87
2018-03-31T18:27:45.570Z,43.70
2018-03-31T18:30:12.692Z,44.67
2018-03-31T18:32:39.866Z,44.37
2018-03-31T18:35:07.020Z,42.97
2018-03-31T18:37:34.138Z,40.60
2018-03-31T18:40:01.298Z,43.30
2018-03-31T18:42:28.474Z,45.43
2018-03-31T18:44:55.600Z,45.53
2018-03-31T18:47:22.777Z,46.13
2018-03-31T18:49:49.929Z,45.73
2018-03-31T18:52:17.098Z,48.83
2018-03-31T18:54:44.223Z,48.57
2018-03-31T18:57:11.402Z,46.17
2018-03-31T18:59:38.542Z,50.65
2018-03-31T19:02:05.701Z,48.30
2018-03-31T19:04:32.845Z,52.70
2018-03-31T19:07:00.029Z,53.00
2018-03-31T19:09:27.156Z,52.07
2018-03-31T19:11:54.590Z,53.05
2018-03-31T19:14:21.776Z,54.50
2018-03-31T19:16:54.741Z,55.90
2018-03-31T19:19:21.918Z,59.07
2018-03-31T19:21:49.046Z,60.20
2018-03-31T19:24:16.185Z,52.27
2018-03-31T19:26:43.346Z,54.13
2018-03-31T19:29:10.494Z,57.93
2018-03-31T19:31:37.618Z,57.00
2018-03-31T19:34:04.776Z,58.93
2018-03-31T19:36:31.898Z,55.30
2018-03-31T19:38:59.044Z,57.50
2018-03-31T19:41:26.211Z,53.07
2018-03-31T19:43:53.348Z,53.70
2018-03-31T19:46:20.489Z,53.80
2018-03-31T19:48:47.692Z,53.05
2018-03-31T19:51:14.820Z,48.80
2018-03-31T19:53:41.965Z,47.37
2018-03-31T19:56:09.118Z,45.30
2018-03-31T19:58:36.283Z,45.30
2018-03-31T20:01:03.830Z,42.77
2018-03-31T20:03:30.962Z,41.23
2018-03-31T20:05:58.144Z,42.47
2018-03-31T20:08:25.292Z,41.63
2018-03-31T20:10:52.417Z,40.90
2018-03-31T20:13:19.591Z,44.10
2018-03-31T20:15:46.718Z,39.50
2018-03-31T20:18:13.834Z,38.30
2018-03-31T20:20:40.977Z,40.07
2018-03-31T20:23:08.132Z,38.27
2018-03-31T20:25:35.292Z,38.50
2018-03-31T20:28:02.421Z,36.73
2018-03-31T20:30:29.553Z,37.17
2018-03-31T20:32:56.696Z,37.90
2018-03-31T20:35:23.824Z,39.50
2018-03-31T20:37:50.949Z,35.53
2018-03-31T20:40:18.120Z,36.80
2018-03-31T20:42:45.271Z,34.50
2018-03-31T20:45:12.402Z,33.60
2018-03-31T20:47:39.561Z,34.90
2018-03-31T20:50:06.679Z,36.87
2018-03-31T20:52:33.798Z,35.80
2018-03-31T20:55:00.958Z,37.23
2018-03-31T20:57:28.073Z,34.50
2018-03-31T20:59:55.190Z,36.10
2018-03-31T21:02:22.341Z,35.70
2018-03-31T21:04:49.462Z,36.30
2018-03-31T21:07:16.599Z,35.60
2018-03-31T21:09:43.759Z,33.47
2018-03-31T21:12:10.889Z,36.23
2018-03-31T21:14:38.005Z,37.30
2018-03-31T21:17:05.198Z,35.67
2018-03-31T21:19:32.405Z,35.73
2018-03-31T21:21:59.524Z,34.40
2018-03-31T21:24:26.681Z,37.17
2018-03-31T21:26:53.810Z,37.53
2018-03-31T21:29:20.941Z,36.40
2018-03-31T21:31:48.113Z,34.87
2018-03-31T21:34:15.241Z,37.17
2018-03-31T21:36:42.369Z,33.33
2018-03-31T21:39:09.546Z,32.53
2018-03-31T21:41:36.660Z,30.30
2018-03-31T21:44:03.788Z,30.47
2018-03-31T21:46:30.938Z,30.20
2018-03-31T21:48:58.097Z,30.80
2018-03-31T21:51:25.266Z,30.67
2018-03-31T21:53:52.378Z,29.80
2018-03-31T21:56:19.559Z,32.17
2018-03-31T21:58:46.741Z,27.63
2018-03-31T22:01:13.857Z,29.63
2018-03-31T22:03:40.977Z,31.60
2018-03-31T22:06:08.141Z,28.70
2018-03-31T22:08:35.261Z,30.07
2018-03-31T22:11:02.381Z,28.27
2018-03-31T22:13:35.371Z,26.87
2018-03-31T22:16:02.489Z,25.23
2018-03-31T22:18:29.605Z,21.53
2018-03-31T22:20:56.741Z,21.20
2018-03-31T22:23:23.874Z,22.80
2018-03-31T22:25:51.029Z,23.50
2018-03-31T22:28:18.149Z,22.67
2018-03-31T22:30:45.284Z,25.13
2018-03-31T22:33:12.437Z,23.73
2018-03-31T22:35:39.584Z,22.07
2018-03-31T22:38:06.702Z,20.47
2018-03-31T22:40:33.858Z,19.20
2018-03-31T22:43:00.977Z,17.97
2018-03-31T22:45:28.181Z,20.17
2018-03-31T22:47:55.325Z,21.90
2018-03-31T22:50:22.440Z,21.20
2018-03-31T22:52:49.570Z,19.30
2018-03-31T22:55:16.722Z,20.73
2018-03-31T22:57:43.849Z,20.87
2018-03-31T23:00:10.979Z,21.37
2018-03-31T23:02:38.169Z,19.50
2018-03-31T23:05:05.410Z,20.43
2018-03-31T23:07:32.539Z,21.10
2018-03-31T23:09:59.873Z,19.37
2018-03-31T23:12:26.984Z,19.80
2018-03-31T23:14:54.108Z,19.33
2018-03-31T23:17:21.285Z,21.37
2018-03-31T23:19:48.418Z,19.07
2018-03-31T23:22:15.540Z,17.80
2018-03-31T23:24:42.689Z,19.10
2018-03-31T23:27:09.801Z,17.20
2018-03-31T23:29:36.937Z,17.37
2018-03-31T23:32:04.078Z,16.07
2018-03-31T23:34:31.232Z,15.83
2018-03-31T23:36:58.345Z,15.73
2018-03-31T23:39:25.497Z,15.50
2018-03-31T23:41:52.643Z,16.70
2018-03-31T23:44:19.758Z,14.50
2018-03-31T23:46:46.887Z,15.47
2018-03-31T23:49:14.038Z,15.13
2018-03-31T23:51:41.153Z,13.40
2018-03-31T23:54:08.271Z,14.40
2018-03-31T23:56:35.417Z,13.20
2018-03-31T23:59:02.548Z,11.77
